createdAt,value
2022-09-03T00:00:03.267Z,60
2022-09-03T00:20:02.799Z,60
2022-09-03T00:40:03.486Z,61
2022-09-03T01:00:02.942Z,61
2022-09-03T01:20:02.414Z,61
2022-09-03T01:40:03.004Z,61
2022-09-03T02:00:02.500Z,62
2022-09-03T02:20:03.108Z,62
2022-09-03T02:40:02.868Z,62
2022-09-03T03:00:03.295Z,63
2022-09-03T03:20:02.798Z,63
2022-09-03T03:40:03.230Z,63
2022-09-03T04:00:02.593Z,64
2022-09-03T04:20:03.373Z,65
2022-09-03T04:40:02.800Z,66
2022-09-03T05:00:03.199Z,67
2022-09-03T05:20:02.618Z,68
2022-09-03T05:40:02.961Z,68
2022-09-03T06:00:02.386Z,68
2022-09-03T06:20:02.831Z,67
2022-09-03T06:40:03.352Z,66
2022-09-03T07:00:02.988Z,64
2022-09-03T07:20:02.623Z,62
2022-09-03T07:40:03.462Z,61
2022-09-03T08:00:02.845Z,57
2022-09-03T08:20:02.538Z,53
2022-09-03T08:40:03.207Z,50
2022-09-03T09:00:02.560Z,45
2022-09-03T09:20:03.108Z,43
2022-09-03T09:40:02.651Z,40
2022-09-03T10:00:03.060Z,37
2022-09-03T10:20:02.967Z,35
2022-09-03T10:40:02.507Z,33
2022-09-03T11:00:02.749Z,34
2022-09-03T11:20:02.323Z,36
2022-09-03T11:40:02.980Z,36
2022-09-03T12:00:02.305Z,34
2022-09-03T12:20:02.423Z,33
2022-09-03T12:40:08.214Z,34
2022-09-03T13:00:03.064Z,34
2022-09-03T13:20:02.874Z,34
2022-09-03T13:40:02.198Z,34
2022-09-03T14:00:02.529Z,34
2022-09-03T14:20:02.274Z,34
2022-09-03T14:40:03.050Z,34
2022-09-03T15:00:03.699Z,35
2022-09-03T15:20:04.502Z,35
2022-09-03T15:40:04.454Z,35
2022-09-03T16:00:04.005Z,35
2022-09-03T16:20:04.320Z,35
2022-09-03T16:40:03.992Z,36
2022-09-03T17:00:03.653Z,37
2022-09-03T17:20:04.209Z,37
2022-09-03T17:40:02.754Z,38
2022-09-03T18:00:03.188Z,39
2022-09-03T18:20:02.798Z,39
2022-09-03T18:40:06.082Z,40
2022-09-03T19:00:02.725Z,41
2022-09-03T19:20:02.681Z,43
2022-09-03T19:40:03.337Z,44
2022-09-03T20:00:02.840Z,44
2022-09-03T20:20:02.524Z,45
2022-09-03T20:40:03.063Z,46
2022-09-03T21:00:02.422Z,46
2022-09-03T21:20:02.938Z,46
2022-09-03T21:40:06.276Z,46
2022-09-03T22:00:02.466Z,46
2022-09-03T22:20:03.079Z,47
2022-09-03T22:40:02.527Z,47
2022-09-03T23:00:02.799Z,47
2022-09-03T23:40:03.024Z,49
